ADDS METAR Data INFO
IDs: Format: Raw Decoded Include TAF

Data at: 0216 UTC 18 Jan 2018

KSHL 180215Z AUTO 22010KT 10SM CLR M04/M08 A3018 RMK AO2
KSHL 180155Z AUTO 23008KT 10SM CLR M04/M08 A3018 RMK AO2
KSHL 180135Z AUTO 22010G17KT 10SM CLR M03/M08 A3018 RMK AO2
KSHL 180115Z AUTO 21014G20KT 10SM CLR M03/M08 A3017 RMK AO2
KSHL 180055Z AUTO 21013G19KT 10SM CLR M03/M08 A3018 RMK AO2
KSHL 180035Z AUTO 22010KT 10SM CLR M03/M08 A3019 RMK AO2
KSHL 180015Z AUTO 22011KT 10SM CLR M03/M08 A3019 RMK AO2
KSHL 172355Z AUTO 22010KT 10SM CLR M03/M08 A3019 RMK AO2
KSHL 172335Z AUTO 23009KT 10SM CLR M03/M08 A3020 RMK AO2
KSHL 172315Z AUTO 22012KT 10SM CLR M02/M08 A3019 RMK AO2
KSHL 172255Z AUTO 24011KT 10SM CLR M01/M08 A3020 RMK AO2
KSHL 172235Z AUTO 22014G22KT 10SM CLR M01/M08 A3019 RMK AO2
KSHL 172215Z AUTO 22014G19KT 10SM CLR M01/M08 A3019 RMK AO2
KSHL 172155Z AUTO 22015KT 10SM CLR M00/M08 A3019 RMK AO2
KSHL 172135Z AUTO 23014G21KT 10SM CLR M01/M08 A3020 RMK AO2
KSHL 172115Z AUTO 22015G23KT 10SM CLR M01/M09 A3019 RMK AO2
KSHL 172055Z AUTO 22017KT 10SM CLR M01/M09 A3019 RMK AO2
KSHL 172035Z AUTO 22012G19KT 10SM CLR M01/M09 A3020 RMK AO2
KSHL 172015Z AUTO 21016KT 10SM CLR M02/M09 A3021 RMK AO2
KSHL 171955Z AUTO 22013G19KT 10SM CLR M03/M09 A3022 RMK AO2
KSHL 171935Z AUTO 22014KT 10SM CLR M03/M10 A3023 RMK AO2
KSHL 171915Z AUTO 22012KT 10SM CLR M04/M10 A3024 RMK AO2
KSHL 171855Z AUTO 22014KT 10SM CLR M05/M11 A3026 RMK AO2
KSHL 171835Z AUTO 22013G19KT 10SM CLR M06/M12 A3026 RMK AO2
KSHL 171815Z AUTO 22012G19KT 10SM CLR M07/M12 A3028 RMK AO2
KSHL 171755Z AUTO 22013G20KT 10SM CLR M07/M13 A3029 RMK AO2
KSHL 171735Z AUTO 21014G19KT 10SM CLR M08/M13 A3031 RMK AO2
KSHL 171715Z AUTO 21013KT 10SM CLR M09/M14 A3033 RMK AO2
KSHL 171655Z AUTO 22014KT 10SM CLR M09/M14 A3033 RMK AO2
KSHL 171635Z AUTO 21013KT 10SM CLR M09/M15 A3033 RMK AO2
KSHL 171615Z AUTO 21013G20KT 10SM CLR M10/M15 A3033 RMK AO2
KSHL 171555Z AUTO 21015G22KT 10SM CLR M11/M16 A3034 RMK AO2
KSHL 171535Z AUTO 20013KT 10SM CLR M11/M16 A3033 RMK AO2
KSHL 171515Z AUTO 20013G19KT 10SM CLR M12/M16 A3034 RMK AO2
KSHL 171455Z AUTO 20012KT 10SM CLR M13/M17 A3034 RMK AO2
KSHL 171435Z AUTO 20013KT 10SM CLR M13/M17 A3034 RMK AO2
KSHL 171415Z AUTO 20013KT 10SM CLR M14/M17 A3034 RMK AO2
KSHL 171355Z AUTO 20014KT 10SM CLR M14/M17 A3035 RMK AO2
KSHL 171335Z AUTO 20013G19KT 10SM CLR M14/M17 A3035 RMK AO2
KSHL 171315Z AUTO 21012G18KT 10SM CLR M14/M17 A3036 RMK AO2
KSHL 171255Z AUTO 20015KT 10SM CLR M14/M18 A3036 RMK AO2
KSHL 171235Z AUTO 20014KT 10SM CLR M15/M18 A3037 RMK AO2
KSHL 171215Z AUTO 20011KT 10SM CLR M15/M18 A3038 RMK AO2
KSHL 171155Z AUTO 20012KT 10SM CLR M15/M18 A3039 RMK AO2
KSHL 171135Z AUTO 20014KT 10SM CLR M15/M18 A3039 RMK AO2
KSHL 171115Z AUTO 20011KT 10SM CLR M15/M18 A3041 RMK AO2
KSHL 171055Z AUTO 21010G16KT 10SM CLR M16/M18 A3041 RMK AO2
KSHL 171035Z AUTO 20012KT 10SM CLR M16/M18 A3040 RMK AO2
KSHL 171015Z AUTO 20010KT 10SM CLR M15/M18 A3042 RMK AO2
KSHL 170955Z AUTO 20010KT 10SM CLR M16/M18 A3043 RMK AO2
KSHL 170935Z AUTO 21009KT 10SM CLR M16/M18 A3044 RMK AO2
KSHL 170915Z AUTO 20010KT 10SM CLR M16/M19 A3044 RMK AO2
KSHL 170855Z AUTO 21010KT 10SM CLR M17/M19 A3044 RMK AO2
KSHL 170835Z AUTO 20009KT 10SM CLR M17/M19 A3044 RMK AO2
KSHL 170815Z AUTO 20008KT 10SM CLR M18/M20 A3045 RMK AO2
KSHL 170755Z AUTO 18005KT 10SM CLR M18/M20 A3047 RMK AO2
KSHL 170735Z AUTO 20007KT 10SM CLR M18/M20 A3048 RMK AO2
KSHL 170715Z AUTO 20008KT 10SM CLR M18/M20 A3048 RMK AO2
KSHL 170655Z AUTO 19007KT 10SM CLR M18/M20 A3049 RMK AO2
KSHL 170635Z AUTO 20008KT 10SM CLR M17/M19 A3049 RMK AO2
KSHL 170615Z AUTO 20007KT 10SM CLR M18/M19 A3050 RMK AO2
KSHL 170555Z AUTO 20008KT 10SM CLR M17/M19 A3050 RMK AO2
KSHL 170535Z AUTO 20009KT 10SM CLR M18/M19 A3050 RMK AO2
KSHL 170515Z AUTO 20007KT 10SM CLR M18/M20 A3052 RMK AO2
KSHL 170455Z AUTO 21006KT 10SM FEW002 M19/M21 A3053 RMK AO2
KSHL 170435Z AUTO 19004KT 10SM BKN002 M20/M21 A3055 RMK AO2
KSHL 170415Z AUTO 19004KT 10SM SCT002 M20/M22 A3055 RMK AO2
KSHL 170355Z AUTO 00000KT 10SM CLR M19/M21 A3055 RMK AO2
KSHL 170335Z AUTO 00000KT 10SM CLR M19/M21 A3055 RMK AO2
KSHL 170315Z AUTO 22004KT 10SM CLR M19/M21 A3054 RMK AO2
KSHL 170255Z AUTO 23005KT 10SM CLR M19/M21 A3056 RMK AO2
KSHL 170235Z AUTO 22005KT 10SM CLR M19/M21 A3057 RMK AO2
KSHL 170215Z AUTO 23004KT 10SM CLR M19/M21 A3058 RMK AO2
KSHL 170155Z AUTO 23005KT 10SM CLR M19/M21 A3058 RMK AO2
KSHL 170135Z AUTO 23004KT 10SM CLR M19/M21 A3059 RMK AO2
KSHL 170115Z AUTO 24005KT 10SM CLR M18/M20 A3059 RMK AO2
KSHL 170055Z AUTO 24004KT 10SM SCT007 M18/M20 A3059 RMK AO2
KSHL 170035Z AUTO 26005KT 10SM OVC007 M19/M21 A3060 RMK AO2
KSHL 170015Z AUTO 25004KT 10SM BKN007 M18/M21 A3060 RMK AO2
KSHL 162355Z AUTO 26004KT 10SM BKN007 M17/M19 A3061 RMK AO2
KSHL 162335Z AUTO 28005KT 10SM BKN007 M17/M19 A3061 RMK AO2
KSHL 162315Z AUTO 29005KT 10SM CLR M16/M19 A3061 RMK AO2
KSHL 162255Z AUTO 30005KT 10SM CLR M15/M18 A3061 RMK AO2
KSHL 162235Z AUTO 30006KT 10SM CLR M15/M18 A3062 RMK AO2
KSHL 162215Z AUTO 29006KT 10SM CLR M15/M18 A3062 RMK AO2
KSHL 162155Z AUTO 28007KT 10SM CLR M15/M18 A3062 RMK AO2
KSHL 162135Z AUTO 30007KT 10SM FEW006 M15/M18 A3062 RMK AO2
KSHL 162115Z AUTO 30008KT 10SM SCT006 M15/M18 A3063 RMK AO2
KSHL 162055Z AUTO 29009KT 9SM SCT005 SCT008 M15/M18 A3063 RMK AO2
KSHL 162035Z AUTO 29010KT 9SM BKN006 M16/M19 A3064 RMK AO2
KSHL 162015Z AUTO 29010KT 9SM FEW005 M16/M19 A3064 RMK AO2
KSHL 161955Z AUTO 30010KT 9SM FEW004 FEW008 M16/M19 A3065 RMK AO2
KSHL 161935Z AUTO 28009KT 8SM FEW005 M16/M19 A3065 RMK AO2
KSHL 161915Z AUTO 31010KT 9SM SCT005 M17/M20 A3066 RMK AO2
KSHL 161855Z AUTO 31010KT 7SM SCT005 M17/M20 A3066 RMK AO2
KSHL 161835Z AUTO 30010KT 8SM FEW004 SCT012 M18/M21 A3067 RMK AO2
KSHL 161815Z AUTO 30009KT 8SM BKN011 M18/M21 A3068 RMK AO2
KSHL 161755Z AUTO 31010KT 9SM BKN011 M18/M21 A3069 RMK AO2
KSHL 161735Z AUTO 32011KT 9SM OVC011 M18/M21 A3069 RMK AO2
KSHL 161715Z AUTO 31011KT 9SM FEW006 OVC011 M19/M22 A3070 RMK AO2
KSHL 161655Z AUTO 30008KT 8SM -SN OVC011 M19/M22 A3070 RMK AO2
KSHL 161635Z AUTO 32010KT 10SM OVC011 M19/M22 A3070 RMK AO2
KSHL 161615Z AUTO 32011KT 8SM OVC011 M19/M22 A3070 RMK AO2
KSHL 161555Z AUTO 32011KT 9SM OVC011 M20/M23 A3071 RMK AO2
KSHL 161535Z AUTO 32009KT 9SM OVC011 M20/M23 A3070 RMK AO2
KSHL 161515Z AUTO 32010KT 10SM OVC011 M20/M23 A3069 RMK AO2
KSHL 161455Z AUTO 31007KT 7SM FEW006 OVC011 M21/M23 A3069 RMK AO2
KSHL 161435Z AUTO 33005KT 10SM OVC011 M22/M24 A3069 RMK AO2